createdAt,value
2019-03-08T00:00:02.309Z,99514.83
2019-03-08T00:02:29.050Z,99523.86
2019-03-08T00:04:55.778Z,99513.63
2019-03-08T00:07:22.521Z,99522.20
2019-03-08T00:09:49.226Z,99536.63
2019-03-08T00:12:15.977Z,99527.72
2019-03-08T00:14:42.694Z,99531.94
2019-03-08T00:17:09.432Z,99531.47
2019-03-08T00:19:36.141Z,99537.14
2019-03-08T00:22:02.962Z,99540.86
2019-03-08T00:24:29.677Z,99546.06
2019-03-08T00:26:56.413Z,99543.31
2019-03-08T00:29:23.147Z,99541.90
2019-03-08T00:31:49.891Z,99538.66
2019-03-08T00:34:16.605Z,99543.07
2019-03-08T00:36:43.337Z,99542.75
2019-03-08T00:39:10.067Z,99548.98
2019-03-08T00:41:36.806Z,99556.77
2019-03-08T00:44:03.526Z,99557.79
2019-03-08T00:46:30.282Z,99555.80
2019-03-08T00:48:57.029Z,99565.17
2019-03-08T00:51:23.744Z,99558.34
2019-03-08T00:53:50.458Z,99569.65
2019-03-08T00:56:17.193Z,99579.34
2019-03-08T00:58:43.910Z,99578.69
2019-03-08T01:01:10.654Z,99578.05
2019-03-08T01:03:37.382Z,99589.73
2019-03-08T01:06:04.126Z,99602.51
2019-03-08T01:08:30.846Z,99606.97
2019-03-08T01:10:57.609Z,99602.42
2019-03-08T01:13:24.347Z,99611.17
2019-03-08T01:15:51.086Z,99606.58
2019-03-08T01:18:17.921Z,99614.48
2019-03-08T01:20:44.605Z,99621.88
2019-03-08T01:23:11.357Z,99628.69
2019-03-08T01:25:38.081Z,99638.80
2019-03-08T01:28:07.813Z,99651.16
2019-03-08T01:30:34.856Z,99643.00
2019-03-08T01:33:01.587Z,99638.66
2019-03-08T01:35:28.318Z,99652.70
2019-03-08T01:37:55.042Z,99633.03
2019-03-08T01:40:21.761Z,99631.64
2019-03-08T01:42:48.501Z,99633.89
2019-03-08T01:45:15.229Z,99640.14
2019-03-08T01:47:42.162Z,99629.55
2019-03-08T01:50:08.993Z,99635.53
2019-03-08T01:52:35.742Z,99633.89
2019-03-08T01:55:02.541Z,99636.95
2019-03-08T01:57:29.278Z,99640.28
2019-03-08T01:59:55.999Z,99641.77
2019-03-08T02:02:22.738Z,99645.20
2019-03-08T02:04:49.529Z,99642.33
2019-03-08T02:07:16.270Z,99641.75
2019-03-08T02:09:42.993Z,99645.09
2019-03-08T02:12:09.738Z,99641.94
2019-03-08T02:14:36.453Z,99646.50
2019-03-08T02:17:03.191Z,99644.47
2019-03-08T02:19:29.917Z,99647.74
2019-03-08T02:21:56.665Z,99655.75
2019-03-08T02:24:23.391Z,99653.64
2019-03-08T02:26:50.138Z,99649.03
2019-03-08T02:29:16.857Z,99648.51
2019-03-08T02:31:43.594Z,99654.36
2019-03-08T02:34:10.310Z,99659.63
2019-03-08T02:36:37.046Z,99645.65
2019-03-08T02:39:03.828Z,99648.61
2019-03-08T02:41:30.566Z,99652.01
2019-03-08T02:43:57.290Z,99650.37
2019-03-08T02:46:24.032Z,99661.66
2019-03-08T02:48:50.742Z,99653.55
2019-03-08T02:51:17.489Z,99664.81
2019-03-08T02:53:44.214Z,99670.08
2019-03-08T02:56:10.927Z,99675.64
2019-03-08T02:58:37.677Z,99675.02
2019-03-08T03:01:04.421Z,99693.02
2019-03-08T03:03:31.150Z,99687.09
2019-03-08T03:05:57.885Z,99689.14
2019-03-08T03:08:24.614Z,99695.55
2019-03-08T03:10:51.361Z,99686.70
2019-03-08T03:13:18.109Z,99694.94
2019-03-08T03:15:44.835Z,99694.09
2019-03-08T03:18:12.575Z,99706.78
2019-03-08T03:20:38.295Z,99705.40
2019-03-08T03:23:05.041Z,99706.88
2019-03-08T03:25:31.773Z,99707.50
2019-03-08T03:27:58.513Z,99709.70
2019-03-08T03:30:25.243Z,99708.07
2019-03-08T03:32:51.995Z,99714.20
2019-03-08T03:35:18.735Z,99716.22
2019-03-08T03:37:45.510Z,99720.53
2019-03-08T03:40:12.275Z,99727.86
2019-03-08T03:42:39.005Z,99725.84
2019-03-08T03:45:06.482Z,99734.19
2019-03-08T03:47:33.220Z,99723.51
2019-03-08T03:49:59.981Z,99738.50
2019-03-08T03:52:26.702Z,99740.80
2019-03-08T03:54:53.425Z,99731.12
2019-03-08T03:57:20.157Z,99743.39
2019-03-08T03:59:46.886Z,99753.02
2019-03-08T04:02:13.618Z,99744.63
2019-03-08T04:04:40.338Z,99750.26
2019-03-08T04:07:07.081Z,99750.20
2019-03-08T04:09:33.801Z,99753.12
2019-03-08T04:12:00.543Z,99756.47
2019-03-08T04:14:27.385Z,99758.44
2019-03-08T04:16:54.135Z,99762.13
2019-03-08T04:19:20.850Z,99767.30
2019-03-08T04:21:47.585Z,99766.34
2019-03-08T04:24:14.306Z,99770.75
2019-03-08T04:26:41.033Z,99770.98
2019-03-08T04:29:07.757Z,99784.39
2019-03-08T04:31:34.494Z,99781.38
2019-03-08T04:34:01.217Z,99796.42
2019-03-08T04:36:27.960Z,99787.72
2019-03-08T04:38:54.683Z,99792.02
2019-03-08T04:41:21.430Z,99792.41
2019-03-08T04:43:48.155Z,99798.47
2019-03-08T04:46:14.882Z,99806.62
2019-03-08T04:48:41.594Z,99805.91
2019-03-08T04:51:08.353Z,99802.50
2019-03-08T04:53:35.070Z,99795.81
2019-03-08T04:56:01.815Z,99816.02
2019-03-08T04:58:28.549Z,99817.08
2019-03-08T05:00:55.283Z,99820.60
2019-03-08T05:03:22.018Z,99810.92
2019-03-08T05:05:48.740Z,99809.16
2019-03-08T05:08:15.469Z,99821.49
2019-03-08T05:10:42.181Z,99816.30
2019-03-08T05:13:09.152Z,99809.70
2019-03-08T05:15:35.869Z,99808.14
2019-03-08T05:18:02.630Z,99809.61
2019-03-08T05:20:29.346Z,99813.97
2019-03-08T05:22:56.425Z,99823.77
2019-03-08T05:25:23.157Z,99819.01
2019-03-08T05:27:49.906Z,99820.34
2019-03-08T05:30:16.625Z,99821.56
2019-03-08T05:32:43.392Z,99831.30
2019-03-08T05:35:10.125Z,99829.73
2019-03-08T05:37:36.874Z,99829.97
2019-03-08T05:40:04.086Z,99834.22
2019-03-08T05:42:30.829Z,99839.66
2019-03-08T05:44:57.554Z,99840.78
2019-03-08T05:47:24.289Z,99842.75
2019-03-08T05:49:51.062Z,99849.08
2019-03-08T05:52:17.909Z,99852.62
2019-03-08T05:54:44.770Z,99849.55
2019-03-08T05:57:11.506Z,99866.08
2019-03-08T05:59:38.227Z,99871.80
2019-03-08T06:02:05.007Z,99879.89
2019-03-08T06:04:31.810Z,99879.49
2019-03-08T06:06:58.573Z,99877.70
2019-03-08T06:09:25.304Z,99879.57
2019-03-08T06:11:52.054Z,99885.39
2019-03-08T06:14:18.780Z,99879.33
2019-03-08T06:16:45.541Z,99889.82
2019-03-08T06:19:12.272Z,99898.53
2019-03-08T06:21:39.006Z,99902.06
2019-03-08T06:24:05.738Z,99901.93
2019-03-08T06:26:33.045Z,99912.95
2019-03-08T06:28:59.778Z,99913.09
2019-03-08T06:31:26.500Z,99915.25
2019-03-08T06:33:53.237Z,99931.97
2019-03-08T06:36:19.991Z,99928.57
2019-03-08T06:38:46.738Z,99932.72
2019-03-08T06:41:13.469Z,99939.77
2019-03-08T06:43:40.214Z,99945.83
2019-03-08T06:46:06.942Z,99951.82
2019-03-08T06:48:33.696Z,99963.41
2019-03-08T06:51:00.414Z,99966.73
2019-03-08T06:53:27.158Z,99962.42
2019-03-08T06:55:53.889Z,99972.36
2019-03-08T06:58:26.450Z,99976.07
2019-03-08T07:00:58.907Z,99976.86
2019-03-08T07:03:25.816Z,99984.39
2019-03-08T07:05:52.534Z,99982.31
2019-03-08T07:08:19.274Z,99985.50
2019-03-08T07:10:46.002Z,99980.05
2019-03-08T07:13:12.746Z,99989.11
2019-03-08T07:15:39.466Z,99989.73
2019-03-08T07:18:12.508Z,99999.27
2019-03-08T07:20:52.713Z,100004.14
2019-03-08T07:23:41.074Z,100001.66
2019-03-08T07:26:30.414Z,100002.06
2019-03-08T07:29:07.874Z,100015.14
2019-03-08T07:31:56.233Z,100027.92
2019-03-08T07:34:43.590Z,100031.94
2019-03-08T07:37:35.863Z,100035.45
2019-03-08T07:40:23.197Z,100037.84
2019-03-08T07:43:02.970Z,100046.14
2019-03-08T07:45:44.772Z,100041.43
2019-03-08T07:48:35.167Z,100043.87
2019-03-08T07:51:11.998Z,100042.23
2019-03-08T07:53:48.434Z,100049.00
2019-03-08T07:56:23.566Z,100063.91
2019-03-08T07:58:55.957Z,100069.57
2019-03-08T08:01:27.994Z,100073.80
2019-03-08T08:04:17.330Z,100073.41
2019-03-08T08:07:03.670Z,100080.58
2019-03-08T08:09:36.294Z,100073.34
2019-03-08T08:12:16.144Z,100093.48
2019-03-08T08:14:53.240Z,100093.81
2019-03-08T08:17:31.017Z,100092.88
2019-03-08T08:20:21.150Z,100101.71
2019-03-08T08:22:55.210Z,100098.64
2019-03-08T08:25:44.385Z,100095.42
2019-03-08T08:28:19.733Z,100098.72
2019-03-08T08:30:59.746Z,100096.75
2019-03-08T08:33:35.626Z,100103.68
2019-03-08T08:36:20.772Z,100097.52
2019-03-08T08:38:57.602Z,100099.62
2019-03-08T08:41:31.486Z,100095.89
2019-03-08T08:44:17.858Z,100118.18
2019-03-08T08:46:50.289Z,100122.75
2019-03-08T08:49:24.858Z,100118.09
2019-03-08T08:51:57.489Z,100106.90
2019-03-08T08:54:35.486Z,100113.44
2019-03-08T08:57:21.821Z,100107.23
2019-03-08T08:59:53.544Z,100114.92
2019-03-08T09:02:33.357Z,100109.46
2019-03-08T09:05:05.752Z,100109.38
2019-03-08T09:07:39.242Z,100101.59
2019-03-08T09:10:19.331Z,100096.61
2019-03-08T09:12:53.579Z,100128.50
2019-03-08T09:15:25.397Z,100119.16
2019-03-08T09:18:11.737Z,100105.59
2019-03-08T09:20:59.962Z,100090.58
2019-03-08T09:23:37.921Z,100121.82
2019-03-08T09:26:28.121Z,100137.45
2019-03-08T09:29:08.381Z,100140.11
2019-03-08T09:31:55.700Z,100151.98
2019-03-08T09:34:43.086Z,100140.92
2019-03-08T09:37:21.731Z,100144.00
2019-03-08T09:39:57.706Z,100164.19
2019-03-08T09:42:45.920Z,100164.07
2019-03-08T09:45:18.413Z,100163.92
2019-03-08T09:48:07.718Z,100159.84
2019-03-08T09:50:41.602Z,100172.84
2019-03-08T09:53:23.207Z,100180.04
2019-03-08T09:55:54.853Z,100187.14
2019-03-08T09:58:39.185Z,100183.02
2019-03-08T10:01:25.942Z,100175.34
2019-03-08T10:03:58.384Z,100191.98
2019-03-08T10:06:33.973Z,100187.97
2019-03-08T10:09:26.342Z,100187.26
2019-03-08T10:12:00.905Z,100199.18
2019-03-08T10:14:51.570Z,100204.29
2019-03-08T10:17:25.917Z,100208.70
2019-03-08T10:20:01.461Z,100224.20
2019-03-08T10:22:37.390Z,100223.58
2019-03-08T10:25:15.310Z,100235.59
2019-03-08T10:27:55.957Z,100254.05
2019-03-08T10:30:32.005Z,100248.18
2019-03-08T10:33:07.866Z,100255.83
2019-03-08T10:35:46.613Z,100260.83
2019-03-08T10:38:22.687Z,100274.75
2019-03-08T10:40:53.806Z,100287.67
2019-03-08T10:43:31.291Z,100289.80
2019-03-08T10:46:17.650Z,100286.09
2019-03-08T10:49:09.938Z,100298.19
2019-03-08T10:51:42.356Z,100293.02
2019-03-08T10:54:16.711Z,100302.56
2019-03-08T10:56:49.286Z,100288.84
2019-03-08T10:59:25.603Z,100297.27
2019-03-08T11:02:14.815Z,100293.99
2019-03-08T11:04:58.095Z,100300.48
2019-03-08T11:07:40.001Z,100300.48
2019-03-08T11:10:17.959Z,100300.73
2019-03-08T11:12:54.310Z,100302.55
2019-03-08T11:15:26.794Z,100301.02
2019-03-08T11:18:01.649Z,100305.58
2019-03-08T11:20:48.799Z,100295.05
2019-03-08T11:23:21.274Z,100290.72
2019-03-08T11:26:08.842Z,100300.63
2019-03-08T11:28:44.001Z,100284.23
2019-03-08T11:31:27.805Z,100293.41
2019-03-08T11:34:04.772Z,100288.07
2019-03-08T11:36:37.789Z,100298.32
2019-03-08T11:39:23.797Z,100312.33
2019-03-08T11:42:16.074Z,100312.13
2019-03-08T11:44:54.456Z,100372.11
2019-03-08T11:47:42.927Z,100366.34
2019-03-08T11:50:29.310Z,100370.45
2019-03-08T11:53:17.646Z,100366.87
2019-03-08T11:55:54.298Z,100381.01
2019-03-08T11:58:26.741Z,100390.55
2019-03-08T12:01:14.925Z,100389.17
2019-03-08T12:03:55.010Z,100393.03
2019-03-08T12:06:29.542Z,100388.67
2019-03-08T12:09:16.701Z,100394.77
2019-03-08T12:11:54.201Z,100389.17
2019-03-08T12:14:30.482Z,100390.80
2019-03-08T12:17:07.323Z,100396.34
2019-03-08T12:19:40.177Z,100390.48
2019-03-08T12:22:15.762Z,100396.94
2019-03-08T12:25:02.254Z,100401.83
2019-03-08T12:27:34.544Z,100395.55
2019-03-08T12:30:07.030Z,100381.72
2019-03-08T12:32:50.096Z,100388.97
2019-03-08T12:35:20.447Z,100380.56
2019-03-08T12:38:01.514Z,100378.64
2019-03-08T12:40:34.722Z,100377.08
2019-03-08T12:43:08.263Z,100378.42
2019-03-08T12:45:39.709Z,100381.16
2019-03-08T12:48:13.439Z,100373.92
2019-03-08T12:51:00.680Z,100374.59
2019-03-08T12:53:34.261Z,100386.63
2019-03-08T12:56:08.993Z,100365.09
2019-03-08T12:58:41.485Z,100350.70
2019-03-08T13:01:14.719Z,100350.77
2019-03-08T13:03:54.670Z,100355.87
2019-03-08T13:06:28.758Z,100344.25
2019-03-08T13:09:02.689Z,100356.25
2019-03-08T13:11:33.151Z,100356.95
2019-03-08T13:13:56.160Z,100351.20
2019-03-08T13:16:22.881Z,100349.89
2019-03-08T13:18:49.622Z,100348.16
2019-03-08T13:21:16.333Z,100349.16
2019-03-08T13:23:43.166Z,100342.85
2019-03-08T13:26:09.894Z,100327.97
2019-03-08T13:28:36.637Z,100336.59
2019-03-08T13:31:03.348Z,100333.73
2019-03-08T13:33:30.081Z,100338.28
2019-03-08T13:35:56.888Z,100343.73
2019-03-08T13:38:23.579Z,100339.83
2019-03-08T13:40:50.305Z,100359.52
2019-03-08T13:43:17.026Z,100361.98
2019-03-08T13:45:43.752Z,100350.48
2019-03-08T13:48:10.490Z,100352.14
2019-03-08T13:50:37.213Z,100356.02
2019-03-08T13:53:04.054Z,100354.85
2019-03-08T13:55:30.795Z,100375.61
2019-03-08T13:57:57.547Z,100378.39
2019-03-08T14:00:29.114Z,100380.41
2019-03-08T14:02:55.886Z,100393.99
2019-03-08T14:05:22.702Z,100400.73
2019-03-08T14:07:49.454Z,100418.88
2019-03-08T14:11:24.705Z,100408.77
2019-03-08T14:13:51.743Z,100404.34
2019-03-08T14:16:18.462Z,100385.98
2019-03-08T14:18:45.200Z,100386.86
2019-03-08T14:21:12.006Z,100382.77
2019-03-08T14:23:38.734Z,100379.95
2019-03-08T14:26:05.445Z,100384.27
2019-03-08T14:28:32.187Z,100378.17
2019-03-08T14:31:18.696Z,100385.03
2019-03-08T14:33:45.439Z,100389.80
2019-03-08T14:36:12.153Z,100392.02
2019-03-08T14:38:38.975Z,100383.30
2019-03-08T14:41:13.221Z,100393.27
2019-03-08T14:43:49.012Z,100378.51
2019-03-08T14:46:22.994Z,100390.95
2019-03-08T14:48:49.725Z,100377.11
2019-03-08T14:51:16.476Z,100371.14
2019-03-08T14:53:43.242Z,100375.02
2019-03-08T14:56:09.970Z,100367.83
2019-03-08T14:58:40.219Z,100371.14
2019-03-08T15:01:06.193Z,100367.48
2019-03-08T15:03:30.302Z,100353.56
2019-03-08T15:05:59.199Z,100366.41
2019-03-08T15:08:23.765Z,100360.00
2019-03-08T15:10:51.425Z,100358.64
2019-03-08T15:13:20.125Z,100370.29
2019-03-08T15:15:44.133Z,100375.53
2019-03-08T15:18:10.848Z,100370.09
2019-03-08T15:20:37.900Z,100370.58
2019-03-08T15:23:04.376Z,100375.67
2019-03-08T15:25:31.558Z,100373.45
2019-03-08T15:27:58.030Z,100358.59
2019-03-08T15:30:24.799Z,100355.02
2019-03-08T15:32:51.798Z,100358.38
2019-03-08T15:35:18.630Z,100356.66
2019-03-08T15:37:45.349Z,100352.62
2019-03-08T15:40:14.394Z,100352.66
2019-03-08T15:42:41.146Z,100345.06
2019-03-08T15:45:08.274Z,100346.66
2019-03-08T15:47:36.228Z,100344.17
2019-03-08T15:50:04.509Z,100348.34
2019-03-08T15:52:28.535Z,100346.92
2019-03-08T15:54:58.863Z,100349.59
2019-03-08T15:57:25.632Z,100345.80
2019-03-08T15:59:52.470Z,100361.94
2019-03-08T16:02:19.211Z,100363.58
2019-03-08T16:04:49.873Z,100367.06
2019-03-08T16:07:12.666Z,100360.16
2019-03-08T16:09:39.385Z,100365.30
2019-03-08T16:12:06.126Z,100367.72
2019-03-08T16:14:32.849Z,100360.16
2019-03-08T16:16:59.590Z,100359.03
2019-03-08T16:19:26.415Z,100355.91
2019-03-08T16:21:53.159Z,100362.61
2019-03-08T16:24:19.877Z,100353.67
2019-03-08T16:26:46.601Z,100353.53
2019-03-08T16:29:13.322Z,100358.25
2019-03-08T16:31:50.958Z,100355.30
2019-03-08T16:34:17.674Z,100351.95
2019-03-08T16:36:56.693Z,100355.83
2019-03-08T16:39:44.872Z,100353.52
2019-03-08T16:42:18.168Z,100358.66
2019-03-08T16:44:58.990Z,100355.86
2019-03-08T16:47:35.567Z,100360.30
2019-03-08T16:50:26.046Z,100358.38
2019-03-08T16:52:57.445Z,100359.13
2019-03-08T16:55:38.402Z,100364.45
2019-03-08T16:58:20.111Z,100362.11
2019-03-08T17:00:53.183Z,100372.75
2019-03-08T17:03:24.938Z,100387.19
2019-03-08T17:05:58.856Z,100386.97
2019-03-08T17:08:43.814Z,100382.11
2019-03-08T17:11:16.435Z,100376.95
2019-03-08T17:13:50.815Z,100388.27
2019-03-08T17:16:23.424Z,100390.28
2019-03-08T17:18:59.870Z,100407.23
2019-03-08T17:21:32.901Z,100414.00
2019-03-08T17:24:13.836Z,100409.55
2019-03-08T17:26:52.466Z,100410.03
2019-03-08T17:29:24.860Z,100413.72
2019-03-08T17:31:58.953Z,100416.70
2019-03-08T17:34:34.674Z,100412.67
2019-03-08T17:37:13.222Z,100412.33
2019-03-08T17:39:52.426Z,100411.77
2019-03-08T17:42:34.329Z,100415.45
2019-03-08T17:45:23.693Z,100418.47
2019-03-08T17:47:56.154Z,100419.77
2019-03-08T17:50:31.030Z,100423.84
2019-03-08T17:53:03.642Z,100425.13
2019-03-08T17:55:36.257Z,100433.64
2019-03-08T17:58:25.405Z,100429.41
2019-03-08T18:01:02.398Z,100439.00
2019-03-08T18:03:43.286Z,100440.92
2019-03-08T18:06:15.842Z,100449.32
2019-03-08T18:08:50.587Z,100454.23
2019-03-08T18:11:38.089Z,100464.28
2019-03-08T18:14:19.011Z,100465.31
2019-03-08T18:16:58.833Z,100459.27
2019-03-08T18:19:34.953Z,100457.37
2019-03-08T18:22:21.325Z,100450.28
2019-03-08T18:25:11.523Z,100443.89
2019-03-08T18:27:48.264Z,100432.24
2019-03-08T18:30:20.810Z,100431.45
2019-03-08T18:32:58.482Z,100438.97
2019-03-08T18:35:35.697Z,100437.40
2019-03-08T18:38:23.025Z,100434.59
2019-03-08T18:40:58.270Z,100443.51
2019-03-08T18:43:47.526Z,100439.34
2019-03-08T18:46:34.649Z,100450.28
2019-03-08T18:49:09.129Z,100455.41
2019-03-08T18:51:49.342Z,100455.92
2019-03-08T18:54:21.997Z,100453.25
2019-03-08T18:56:53.104Z,100458.33
2019-03-08T18:59:27.102Z,100449.25
2019-03-08T19:02:02.922Z,100446.76
2019-03-08T19:04:35.373Z,100444.13
2019-03-08T19:07:11.083Z,100443.69
2019-03-08T19:09:43.633Z,100451.61
2019-03-08T19:12:24.220Z,100456.54
2019-03-08T19:15:01.206Z,100458.38
2019-03-08T19:17:42.418Z,100462.41
2019-03-08T19:20:20.545Z,100467.94
2019-03-08T19:22:55.491Z,100476.00
2019-03-08T19:25:31.422Z,100471.91
2019-03-08T19:28:16.726Z,100484.91
2019-03-08T19:30:54.726Z,100484.44
2019-03-08T19:33:27.194Z,100492.11
2019-03-08T19:35:59.147Z,100486.23
2019-03-08T19:38:34.714Z,100490.38
2019-03-08T19:41:17.605Z,100499.45
2019-03-08T19:44:07.019Z,100495.48
2019-03-08T19:46:54.709Z,100495.17
2019-03-08T19:49:41.058Z,100499.23
2019-03-08T19:52:13.530Z,100490.81
2019-03-08T19:54:46.092Z,100491.28
2019-03-08T19:57:25.738Z,100487.39
2019-03-08T20:00:03.219Z,100491.76
2019-03-08T20:02:49.569Z,100498.16
2019-03-08T20:05:25.497Z,100506.33
2019-03-08T20:08:01.068Z,100508.08
2019-03-08T20:10:51.258Z,100504.48
2019-03-08T20:13:30.286Z,100501.53
2019-03-08T20:16:19.464Z,100503.17
2019-03-08T20:18:54.636Z,100512.45
2019-03-08T20:21:28.578Z,100517.55
2019-03-08T20:24:02.370Z,100517.55
2019-03-08T20:26:44.145Z,100512.16
2019-03-08T20:29:22.406Z,100510.12
2019-03-08T20:32:10.677Z,100504.16
2019-03-08T20:35:01.900Z,100501.47
2019-03-08T20:37:44.404Z,100506.05
2019-03-08T20:40:18.538Z,100506.84
2019-03-08T20:42:56.468Z,100504.86
2019-03-08T20:45:28.970Z,100504.84
2019-03-08T20:47:55.689Z,100500.34
2019-03-08T20:50:22.446Z,100500.78
2019-03-08T20:52:49.161Z,100497.22
2019-03-08T20:55:15.905Z,100504.06
2019-03-08T20:57:42.626Z,100488.94
2019-03-08T21:00:10.182Z,100494.90
2019-03-08T21:02:36.906Z,100493.69
2019-03-08T21:05:04.381Z,100503.28
2019-03-08T21:07:31.098Z,100496.26
2019-03-08T21:09:57.841Z,100502.09
2019-03-08T21:12:24.570Z,100502.55
2019-03-08T21:14:51.350Z,100504.34
2019-03-08T21:17:18.094Z,100496.27
2019-03-08T21:19:44.822Z,100491.50
2019-03-08T21:22:11.545Z,100489.10
2019-03-08T21:24:38.287Z,100494.77
2019-03-08T21:27:05.010Z,100497.48
2019-03-08T21:29:31.757Z,100485.91
2019-03-08T21:31:58.485Z,100483.98
2019-03-08T21:34:25.268Z,100493.80
2019-03-08T21:36:51.958Z,100482.28
2019-03-08T21:39:18.770Z,100479.27
2019-03-08T21:41:45.514Z,100478.39
2019-03-08T21:44:12.234Z,100477.89
2019-03-08T21:46:39.094Z,100482.05
2019-03-08T21:49:05.826Z,100472.52
2019-03-08T21:51:32.570Z,100480.38
2019-03-08T21:53:59.295Z,100482.47
2019-03-08T21:56:26.041Z,100488.16
2019-03-08T21:58:52.765Z,100475.50
2019-03-08T22:01:19.502Z,100478.73
2019-03-08T22:03:51.126Z,100476.69
2019-03-08T22:06:18.010Z,100471.27
2019-03-08T22:08:55.867Z,100469.14
2019-03-08T22:11:30.520Z,100472.64
2019-03-08T22:13:57.238Z,100473.95
2019-03-08T22:16:23.987Z,100471.97
2019-03-08T22:18:50.695Z,100473.80
2019-03-08T22:21:19.415Z,100470.77
2019-03-08T22:23:44.286Z,100465.03
2019-03-08T22:26:11.034Z,100467.98
2019-03-08T22:28:37.753Z,100446.64
2019-03-08T22:31:04.486Z,100441.80
2019-03-08T22:33:31.230Z,100443.16
2019-03-08T22:35:57.954Z,100434.13
2019-03-08T22:38:24.657Z,100436.16
2019-03-08T22:40:51.394Z,100431.86
2019-03-08T22:43:18.114Z,100434.23
2019-03-08T22:45:44.866Z,100431.72
2019-03-08T22:48:11.570Z,100427.17
2019-03-08T22:50:38.311Z,100431.59
2019-03-08T22:53:05.030Z,100429.70
2019-03-08T22:55:31.773Z,100423.26
2019-03-08T22:57:58.509Z,100426.89
2019-03-08T23:00:52.461Z,100421.27
2019-03-08T23:03:19.199Z,100418.50
2019-03-08T23:05:46.170Z,100421.96
2019-03-08T23:08:12.913Z,100411.30
2019-03-08T23:10:39.638Z,100404.03
2019-03-08T23:13:06.353Z,100404.30
2019-03-08T23:15:33.089Z,100408.92
2019-03-08T23:17:59.806Z,100408.93
2019-03-08T23:20:26.536Z,100405.16
2019-03-08T23:22:53.271Z,100403.73
2019-03-08T23:25:19.991Z,100396.39
2019-03-08T23:27:51.318Z,100396.91
2019-03-08T23:30:21.449Z,100396.84
2019-03-08T23:32:51.030Z,100391.72
2019-03-08T23:35:17.754Z,100394.66
2019-03-08T23:37:44.490Z,100398.67
2019-03-08T23:40:11.278Z,100399.19
2019-03-08T23:42:38.021Z,100397.20
2019-03-08T23:45:05.578Z,100398.50
2019-03-08T23:47:32.321Z,100394.20
2019-03-08T23:49:59.050Z,100392.69
2019-03-08T23:52:25.793Z,100380.48
2019-03-08T23:54:52.509Z,100381.39
2019-03-08T23:57:19.293Z,100385.33
2019-03-08T23:59:46.021Z,100383.08
